createdAt,value
2019-02-03T00:00:19.103Z,18
2019-02-03T00:02:18.757Z,15.6
2019-02-03T00:04:19.384Z,17.3
2019-02-03T00:06:18.801Z,16.1
2019-02-03T00:08:18.423Z,16.1
2019-02-03T00:10:18.523Z,15.2
2019-02-03T00:12:19.160Z,17.1
2019-02-03T00:14:18.808Z,16.9
2019-02-03T00:16:19.102Z,17.9
2019-02-03T00:18:18.834Z,19.7
2019-02-03T00:20:18.510Z,16.4
2019-02-03T00:22:19.185Z,17.2
2019-02-03T00:24:18.971Z,17.6
2019-02-03T00:26:18.967Z,17.8
2019-02-03T00:28:18.782Z,16.4
2019-02-03T00:30:18.470Z,16.1
2019-02-03T00:32:19.114Z,16.9
2019-02-03T00:34:18.808Z,17
2019-02-03T00:36:19.181Z,16.9
2019-02-03T00:38:21.414Z,17.2
2019-02-03T00:40:19.069Z,17.7
2019-02-03T00:42:18.821Z,16.7
2019-02-03T00:44:18.736Z,17.3
2019-02-03T00:46:19.024Z,18.6
2019-02-03T00:48:18.753Z,18
2019-02-03T00:50:19.473Z,19.1
2019-02-03T00:52:19.118Z,17.5
2019-02-03T00:54:18.758Z,19.1
2019-02-03T00:56:18.691Z,15.1
2019-02-03T00:58:19.339Z,17.5
2019-02-03T01:00:18.996Z,20.2
2019-02-03T01:02:18.630Z,17.9
2019-02-03T01:04:18.778Z,18.7
2019-02-03T01:06:18.702Z,18.4
2019-02-03T01:08:19.353Z,19.2
2019-02-03T01:10:18.499Z,19.9
2019-02-03T01:12:18.695Z,18.1
2019-02-03T01:14:19.351Z,19.8
2019-02-03T01:16:18.756Z,18.4
2019-02-03T01:18:18.499Z,18.8
2019-02-03T01:20:18.626Z,19
2019-02-03T01:22:19.262Z,19.7
2019-02-03T01:24:18.894Z,20
2019-02-03T01:26:19.242Z,19.4
2019-02-03T01:28:19.272Z,19.8
2019-02-03T01:30:19.040Z,19.4
2019-02-03T01:32:18.729Z,19.5
2019-02-03T01:34:18.475Z,22.1
2019-02-03T01:36:18.975Z,17.6
2019-02-03T01:38:18.644Z,19.3
2019-02-03T01:40:18.802Z,21.1
2019-02-03T01:42:19.170Z,21.7
2019-02-03T01:44:18.806Z,22.4
2019-02-03T01:46:18.799Z,19.4
2019-02-03T01:48:18.463Z,17.6
2019-02-03T01:50:19.194Z,18.2
2019-02-03T01:52:18.861Z,18.6
2019-02-03T01:54:18.504Z,18.9
2019-02-03T01:56:18.803Z,18.4
2019-02-03T01:58:18.441Z,20
2019-02-03T02:00:19.083Z,16.5
2019-02-03T02:02:18.724Z,20.4
2019-02-03T02:04:19.363Z,21.5
2019-02-03T02:06:18.674Z,18.4
2019-02-03T02:08:19.317Z,18.9
2019-02-03T02:10:19.435Z,18
2019-02-03T02:12:19.101Z,19.4
2019-02-03T02:14:18.746Z,16.7
2019-02-03T02:16:18.550Z,16.6
2019-02-03T02:18:19.309Z,17.1
2019-02-03T02:20:18.936Z,16.8
2019-02-03T02:22:18.579Z,18.7
2019-02-03T02:24:19.247Z,16.4
2019-02-03T02:26:18.739Z,17.5
2019-02-03T02:28:19.383Z,17.4
2019-02-03T02:30:19.081Z,20.6
2019-02-03T02:32:18.935Z,14.2
2019-02-03T02:34:18.629Z,17.7
2019-02-03T02:36:18.922Z,15.8
2019-02-03T02:38:18.544Z,18
2019-02-03T02:40:18.671Z,16.5
2019-02-03T02:42:19.385Z,17.1
2019-02-03T02:44:19.031Z,15.5
2019-02-03T02:46:18.678Z,18.3
2019-02-03T02:48:19.328Z,16.7
2019-02-03T02:50:19.081Z,20.8
2019-02-03T02:52:18.752Z,20.5
2019-02-03T02:54:19.495Z,18.6
2019-02-03T02:56:19.344Z,18.8
2019-02-03T02:58:19.024Z,17.5
2019-02-03T03:00:18.691Z,19.4
2019-02-03T03:02:19.315Z,18.4
2019-02-03T03:04:18.950Z,20.4
2019-02-03T03:06:19.345Z,22.5
2019-02-03T03:08:19.803Z,21.1
2019-02-03T03:10:19.015Z,18.5
2019-02-03T03:12:18.642Z,21.1
2019-02-03T03:14:19.282Z,20.2
2019-02-03T03:16:18.595Z,22
2019-02-03T03:18:19.298Z,17.6
2019-02-03T03:20:18.955Z,20.7
2019-02-03T03:22:18.616Z,23.9
2019-02-03T03:24:19.239Z,20.1
2019-02-03T03:26:19.128Z,18.1
2019-02-03T03:28:18.758Z,18.8
2019-02-03T03:30:19.412Z,18.9
2019-02-03T03:32:19.031Z,20.4
2019-02-03T03:34:18.683Z,21.8
2019-02-03T03:36:18.506Z,18.4
2019-02-03T03:38:31.166Z,20.7
2019-02-03T03:40:18.590Z,18.9
2019-02-03T03:42:19.251Z,20.9
2019-02-03T03:44:18.894Z,19.3
2019-02-03T03:46:18.693Z,21.2
2019-02-03T03:48:19.325Z,19.1
2019-02-03T03:50:19.035Z,18.9
2019-02-03T03:52:18.671Z,19.5
2019-02-03T03:54:19.007Z,18.9
2019-02-03T03:56:18.948Z,19.2
2019-02-03T03:58:18.593Z,19.7
2019-02-03T04:00:19.254Z,19.3
2019-02-03T04:02:18.626Z,17
2019-02-03T04:04:19.266Z,19.2
2019-02-03T04:06:19.019Z,20.6
2019-02-03T04:08:18.640Z,19.5
2019-02-03T04:10:19.363Z,20.1
2019-02-03T04:12:19.020Z,21.2
2019-02-03T04:14:18.665Z,20.7
2019-02-03T04:16:18.438Z,21.3
2019-02-03T04:18:18.711Z,21.5
2019-02-03T04:20:19.339Z,20.2
2019-02-03T04:22:18.971Z,22.9
2019-02-03T04:24:18.615Z,18.9
2019-02-03T04:26:19.138Z,21.7
2019-02-03T04:28:18.759Z,23
2019-02-03T04:30:19.447Z,20.1
2019-02-03T04:32:19.100Z,22.3
2019-02-03T04:34:18.420Z,21.6
2019-02-03T04:36:19.180Z,21.8
2019-02-03T04:38:18.827Z,20.8
2019-02-03T04:40:18.908Z,22.1
2019-02-03T04:42:19.119Z,21.6
2019-02-03T04:44:18.774Z,24.8
2019-02-03T04:46:19.064Z,20
2019-02-03T04:48:18.700Z,22
2019-02-03T04:50:19.071Z,23
2019-02-03T04:52:19.177Z,23.1
2019-02-03T04:54:18.820Z,21.9
2019-02-03T04:56:18.586Z,22.2
2019-02-03T04:58:18.719Z,17.2
2019-02-03T05:00:19.370Z,23.3
2019-02-03T05:02:19.050Z,22.8
2019-02-03T05:04:18.692Z,22.8
2019-02-03T05:06:18.543Z,24.7
2019-02-03T05:08:19.170Z,23.5
2019-02-03T05:10:19.226Z,22.8
2019-02-03T05:12:19.017Z,23.8
2019-02-03T05:14:19.240Z,24.8
2019-02-03T05:16:18.511Z,23.2
2019-02-03T05:18:19.191Z,21
2019-02-03T05:20:18.842Z,22.8
2019-02-03T05:22:18.973Z,24
2019-02-03T05:24:18.598Z,22.9
2019-02-03T05:26:18.847Z,26
2019-02-03T05:28:18.475Z,24.8
2019-02-03T05:30:18.719Z,26.9
2019-02-03T05:32:19.328Z,25.2
2019-02-03T05:34:18.935Z,21.7
2019-02-03T05:36:18.986Z,24.5
2019-02-03T05:38:19.009Z,21.6
2019-02-03T05:40:19.129Z,25.2
2019-02-03T05:42:18.778Z,23.8
2019-02-03T05:44:18.415Z,25.2
2019-02-03T05:46:19.255Z,22.1
2019-02-03T05:48:18.905Z,25.4
2019-02-03T05:50:18.540Z,22.8
2019-02-03T05:52:19.221Z,21
2019-02-03T05:54:18.860Z,24.9
2019-02-03T05:56:19.229Z,23.3
2019-02-03T05:58:18.839Z,25.6
2019-02-03T06:00:18.473Z,23.1
2019-02-03T06:02:19.106Z,22.9
2019-02-03T06:04:18.719Z,22.6
2019-02-03T06:06:18.492Z,22.6
2019-02-03T06:08:19.121Z,21.3
2019-02-03T06:10:19.244Z,22.8
2019-02-03T06:12:18.873Z,23.2
2019-02-03T06:14:18.508Z,23.3
2019-02-03T06:16:18.428Z,23.7
2019-02-03T06:18:19.119Z,22.3
2019-02-03T06:20:18.755Z,21.9
2019-02-03T06:22:19.388Z,22
2019-02-03T06:24:19.049Z,23.7
2019-02-03T06:26:18.708Z,21.6
2019-02-03T06:28:19.333Z,21.1
2019-02-03T06:30:18.971Z,22.3
2019-02-03T06:32:18.601Z,23.1
2019-02-03T06:34:19.215Z,22.6
2019-02-03T06:36:18.485Z,19
2019-02-03T06:38:19.155Z,21.1
2019-02-03T06:40:19.256Z,21.1
2019-02-03T06:42:18.884Z,23.1
2019-02-03T06:44:18.517Z,21.6
2019-02-03T06:46:19.330Z,23.8
2019-02-03T06:48:19.122Z,22.7
2019-02-03T06:50:18.760Z,21.3
2019-02-03T06:52:19.358Z,20.7
2019-02-03T06:54:18.955Z,19.9
2019-02-03T06:56:18.798Z,22.1
2019-02-03T06:58:18.422Z,21.1
2019-02-03T07:00:19.147Z,21.9
2019-02-03T07:02:18.768Z,22.7
2019-02-03T07:04:19.414Z,20.7
2019-02-03T07:06:18.901Z,21.3
2019-02-03T07:08:18.550Z,25
2019-02-03T07:10:18.654Z,23.1
2019-02-03T07:12:19.256Z,20.1
2019-02-03T07:14:18.890Z,22.1
2019-02-03T07:16:18.809Z,24.1
2019-02-03T07:18:18.478Z,23.3
2019-02-03T07:20:19.129Z,21.8
2019-02-03T07:22:18.744Z,20.5
2019-02-03T07:24:19.378Z,20.9
2019-02-03T07:26:18.776Z,22.1
2019-02-03T07:28:19.406Z,23.6
2019-02-03T07:30:19.082Z,22.1
2019-02-03T07:32:18.709Z,23.1
2019-02-03T07:34:19.341Z,21.3
2019-02-03T07:36:19.099Z,23.2
2019-02-03T07:38:18.719Z,20.5
2019-02-03T07:40:18.886Z,21.8
2019-02-03T07:42:18.538Z,22.2
2019-02-03T07:44:19.163Z,21.3
2019-02-03T07:46:19.373Z,22.4
2019-02-03T07:48:19.020Z,22.4
2019-02-03T07:50:18.647Z,21.4
2019-02-03T07:52:19.269Z,21
2019-02-03T07:54:18.913Z,21.5
2019-02-03T07:56:18.911Z,22.3
2019-02-03T07:58:18.554Z,19
2019-02-03T08:00:19.181Z,16.8
2019-02-03T08:02:18.805Z,19.1
2019-02-03T08:04:18.444Z,14.2
2019-02-03T08:06:18.871Z,22.2
2019-02-03T08:08:18.476Z,18.9
2019-02-03T08:10:24.695Z,13.8
2019-02-03T08:12:19.418Z,18.5
2019-02-03T08:14:19.069Z,18.9
2019-02-03T08:16:18.695Z,20.1
2019-02-03T08:18:19.405Z,19.2
2019-02-03T08:20:19.054Z,18.5
2019-02-03T08:22:18.681Z,19.5
2019-02-03T08:24:19.316Z,20
2019-02-03T08:26:18.545Z,16.5
2019-02-03T08:28:19.250Z,13.5
2019-02-03T08:30:18.885Z,16.6
2019-02-03T08:32:18.516Z,16.9
2019-02-03T08:34:19.130Z,17.4
2019-02-03T08:36:19.370Z,18.1
2019-02-03T08:38:19.020Z,15.4
2019-02-03T08:40:19.105Z,17.7
2019-02-03T08:42:18.749Z,15.8
2019-02-03T08:44:19.369Z,17.3
2019-02-03T08:46:18.637Z,16.2
2019-02-03T08:48:19.243Z,18.5
2019-02-03T08:50:18.882Z,19.3
2019-02-03T08:52:18.506Z,16.8
2019-02-03T08:54:19.129Z,14.5
2019-02-03T08:56:18.921Z,17.8
2019-02-03T08:58:18.546Z,18.2
2019-02-03T09:00:19.219Z,14.2
2019-02-03T09:02:18.861Z,14.6
2019-02-03T09:04:18.501Z,16.8
2019-02-03T09:06:18.540Z,17
2019-02-03T09:08:19.159Z,16.4
2019-02-03T09:10:19.220Z,16.4
2019-02-03T09:12:18.833Z,16.2
2019-02-03T09:14:18.446Z,16.5
2019-02-03T09:16:19.294Z,17.4
2019-02-03T09:18:18.992Z,16.8
2019-02-03T09:20:18.642Z,14
2019-02-03T09:22:19.268Z,15.5
2019-02-03T09:24:18.875Z,17.4
2019-02-03T09:26:18.636Z,15.1
2019-02-03T09:28:19.260Z,17.2
2019-02-03T09:30:19.033Z,14.1
2019-02-03T09:32:18.678Z,15.1
2019-02-03T09:34:19.342Z,16.4
2019-02-03T09:36:19.123Z,15.5
2019-02-03T09:38:18.747Z,15.6
2019-02-03T09:40:18.838Z,15.6
2019-02-03T09:42:18.447Z,15.4
2019-02-03T09:44:19.068Z,15
2019-02-03T09:46:18.447Z,14.7
2019-02-03T09:48:19.080Z,14.9
2019-02-03T09:50:18.735Z,12.8
2019-02-03T09:52:19.344Z,13.9
2019-02-03T09:54:18.963Z,15.2
2019-02-03T09:56:18.732Z,13.1
2019-02-03T09:58:19.365Z,16.2
2019-02-03T10:00:18.991Z,14.6
2019-02-03T10:02:18.885Z,14.7
2019-02-03T10:04:18.505Z,13.3
2019-02-03T10:06:18.757Z,16.6
2019-02-03T10:08:19.360Z,15.6
2019-02-03T10:10:18.452Z,10.3
2019-02-03T10:12:19.053Z,13.6
2019-02-03T10:14:18.669Z,15.1
2019-02-03T10:16:18.427Z,17.4
2019-02-03T10:18:19.108Z,11.9
2019-02-03T10:20:18.746Z,13
2019-02-03T10:22:18.461Z,14.8
2019-02-03T10:24:19.111Z,10.2
2019-02-03T10:26:19.374Z,13.5
2019-02-03T10:28:19.019Z,8.4
2019-02-03T10:30:18.662Z,11.8
2019-02-03T10:32:19.278Z,11.9
2019-02-03T10:34:18.901Z,12.6
2019-02-03T10:36:18.854Z,14.1
2019-02-03T10:38:18.583Z,12.9
2019-02-03T10:40:18.685Z,10.7
2019-02-03T10:42:19.303Z,11.5
2019-02-03T10:44:18.915Z,12.4
2019-02-03T10:46:18.687Z,12.7
2019-02-03T10:48:19.306Z,12.3
2019-02-03T10:50:18.945Z,13.6
2019-02-03T10:52:18.590Z,14.7
2019-02-03T10:54:19.246Z,13.9
2019-02-03T10:56:19.188Z,13.3
2019-02-03T10:58:18.972Z,11.3
2019-02-03T11:00:19.025Z,11.3
2019-02-03T11:02:18.716Z,11.9
2019-02-03T11:04:19.333Z,11.9
2019-02-03T11:06:18.898Z,11.4
2019-02-03T11:08:18.509Z,13.1
2019-02-03T11:10:18.601Z,11.7
2019-02-03T11:12:19.240Z,11.5
2019-02-03T11:14:18.463Z,11.6
2019-02-03T11:16:18.710Z,13.2
2019-02-03T11:18:19.412Z,11.5
2019-02-03T11:20:19.078Z,13.5
2019-02-03T11:22:18.727Z,11.3
2019-02-03T11:24:19.359Z,13.4
2019-02-03T11:26:19.227Z,10.4
2019-02-03T11:28:18.862Z,12.6
2019-02-03T11:30:18.511Z,14
2019-02-03T11:32:19.144Z,11.6
2019-02-03T11:34:18.788Z,13
2019-02-03T11:36:18.632Z,15
2019-02-03T11:38:19.297Z,12.6
2019-02-03T11:40:19.403Z,11.9
2019-02-03T11:42:19.021Z,10.5
2019-02-03T11:44:19.125Z,12.3
2019-02-03T11:46:19.374Z,13.6
2019-02-03T11:48:19.003Z,13.1
2019-02-03T11:50:18.691Z,14.5
2019-02-03T11:52:18.820Z,13.8
2019-02-03T11:54:18.432Z,14.8
2019-02-03T11:56:18.763Z,14
2019-02-03T11:58:18.419Z,12.8
2019-02-03T12:00:18.654Z,13
2019-02-03T12:02:19.267Z,14.1
2019-02-03T12:04:18.891Z,13.2
2019-02-03T12:06:19.097Z,13.6
2019-02-03T12:08:19.221Z,13.7
2019-02-03T12:10:19.304Z,13
2019-02-03T12:12:18.925Z,13.1
2019-02-03T12:14:18.535Z,12.2
2019-02-03T12:16:19.212Z,13.6
2019-02-03T12:18:18.885Z,12.6
2019-02-03T12:20:18.521Z,14.1
2019-02-03T12:22:19.121Z,14.1
2019-02-03T12:24:18.720Z,6.9
2019-02-03T12:26:19.066Z,11.7
2019-02-03T12:28:18.691Z,13.5
2019-02-03T12:30:19.333Z,14.7
2019-02-03T12:32:18.961Z,13.8
2019-02-03T12:34:18.572Z,13.9
2019-02-03T12:36:19.303Z,9.7
2019-02-03T12:38:18.920Z,12.8
2019-02-03T12:40:19.014Z,13
2019-02-03T12:42:18.654Z,14.1
2019-02-03T12:44:19.306Z,11.5
2019-02-03T12:46:18.538Z,10.9
2019-02-03T12:48:19.164Z,11.9
2019-02-03T12:50:18.773Z,12.1
2019-02-03T12:52:19.372Z,9.5
2019-02-03T12:54:19.024Z,13.5
2019-02-03T12:56:18.531Z,10.3
2019-02-03T12:58:19.699Z,11.9
2019-02-03T13:00:19.396Z,12.4
2019-02-03T13:02:19.012Z,12.5
2019-02-03T13:04:18.634Z,11.6
2019-02-03T13:06:18.901Z,10.4
2019-02-03T13:08:18.536Z,10.7
2019-02-03T13:10:18.621Z,11.3
2019-02-03T13:12:24.792Z,12.1
2019-02-03T13:14:19.004Z,12.2
2019-02-03T13:16:20.273Z,12
2019-02-03T13:18:19.405Z,10.7
2019-02-03T13:20:19.028Z,9.3
2019-02-03T13:22:18.638Z,10.1
2019-02-03T13:24:19.268Z,8.5
2019-02-03T13:26:19.013Z,7.8
2019-02-03T13:28:18.673Z,6.7
2019-02-03T13:30:19.340Z,10.8
2019-02-03T13:32:21.985Z,11.3
2019-02-03T13:34:18.855Z,10.8
2019-02-03T13:36:19.180Z,10.1
2019-02-03T13:38:19.228Z,11.3
2019-02-03T13:40:19.298Z,9.3
2019-02-03T13:42:18.933Z,11.2
2019-02-03T13:44:20.985Z,11.7
2019-02-03T13:46:18.579Z,8
2019-02-03T13:48:19.212Z,10.3
2019-02-03T13:50:19.394Z,8.8
2019-02-03T13:52:19.154Z,5.2
2019-02-03T13:54:19.121Z,10.6
2019-02-03T13:56:18.861Z,13.6
2019-02-03T13:58:18.483Z,15.6
2019-02-03T14:00:19.109Z,14.3
2019-02-03T14:02:18.732Z,11.2
2019-02-03T14:04:19.380Z,12.9
2019-02-03T14:06:18.650Z,13.2
2019-02-03T14:08:19.304Z,10.8
2019-02-03T14:10:19.398Z,12.1
2019-02-03T14:12:19.005Z,12.8
2019-02-03T14:14:18.628Z,12.7
2019-02-03T14:16:18.561Z,14.3
2019-02-03T14:18:19.253Z,10.7
2019-02-03T14:20:18.866Z,7.7
2019-02-03T14:22:18.495Z,9.1
2019-02-03T14:24:19.124Z,10
2019-02-03T14:26:18.966Z,10.2
2019-02-03T14:28:18.591Z,8.3
2019-02-03T14:30:19.241Z,11.1
2019-02-03T14:32:18.858Z,10.6
2019-02-03T14:34:18.471Z,9.6
2019-02-03T14:36:19.232Z,10.2
2019-02-03T14:38:18.834Z,8.7
2019-02-03T14:40:18.902Z,8.9
2019-02-03T14:42:18.520Z,9.3
2019-02-03T14:44:19.124Z,8.9
2019-02-03T14:46:18.636Z,8.4
2019-02-03T14:48:19.253Z,10
2019-02-03T14:50:18.897Z,9.3
2019-02-03T14:52:18.538Z,7.8
2019-02-03T14:54:19.185Z,10.1
2019-02-03T14:56:18.534Z,9.1
2019-02-03T14:58:19.181Z,8.8
2019-02-03T15:00:18.824Z,9
2019-02-03T15:02:18.435Z,9.6
2019-02-03T15:04:19.059Z,10.1
2019-02-03T15:06:18.681Z,8.9
2019-02-03T15:08:19.347Z,6.6
2019-02-03T15:10:18.431Z,8.2
2019-02-03T15:12:19.039Z,7.8
2019-02-03T15:14:18.669Z,9.7
2019-02-03T15:16:18.705Z,10.5
2019-02-03T15:18:19.400Z,9.3
2019-02-03T15:20:19.037Z,9.1
2019-02-03T15:22:18.671Z,12
2019-02-03T15:24:18.591Z,9.5
2019-02-03T15:26:18.859Z,6.6
2019-02-03T15:28:18.473Z,8.6
2019-02-03T15:30:19.682Z,9.5
2019-02-03T15:32:19.282Z,8.4
2019-02-03T15:34:18.900Z,8.5
2019-02-03T15:36:18.741Z,10.8
2019-02-03T15:38:19.376Z,8
2019-02-03T15:40:18.439Z,7.4
2019-02-03T15:42:19.078Z,8.5
2019-02-03T15:44:18.699Z,6.8
2019-02-03T15:46:19.399Z,6.9
2019-02-03T15:48:19.040Z,6.2
2019-02-03T15:50:18.786Z,9.1
2019-02-03T15:52:18.409Z,9.4
2019-02-03T15:54:19.063Z,7.6
2019-02-03T15:56:19.386Z,8.9
2019-02-03T15:58:19.031Z,7.9
2019-02-03T16:00:18.687Z,8.5
2019-02-03T16:02:19.288Z,6.4
2019-02-03T16:04:18.919Z,7.1
2019-02-03T16:06:19.230Z,8.9
2019-02-03T16:08:18.856Z,7.1
2019-02-03T16:10:18.931Z,7.1
2019-02-03T16:12:18.550Z,9.2
2019-02-03T16:14:19.179Z,7.5
2019-02-03T16:16:18.777Z,7.3
2019-02-03T16:18:18.461Z,7.8
2019-02-03T16:20:19.089Z,7.7
2019-02-03T16:22:18.707Z,7.4
2019-02-03T16:24:19.306Z,8
2019-02-03T16:26:19.136Z,8.6
2019-02-03T16:28:18.778Z,6.8
2019-02-03T16:30:19.420Z,9.3
2019-02-03T16:32:19.068Z,3.1
2019-02-03T16:34:18.688Z,8
2019-02-03T16:36:19.083Z,7.2
2019-02-03T16:38:22.853Z,8.6
2019-02-03T16:40:18.617Z,6.2
2019-02-03T16:42:19.234Z,7.3
2019-02-03T16:44:18.858Z,7.2
2019-02-03T16:46:19.187Z,8
2019-02-03T16:48:18.846Z,7.2
2019-02-03T16:50:18.550Z,7.6
2019-02-03T16:52:19.278Z,7.8
2019-02-03T16:54:18.909Z,7.4
2019-02-03T16:56:18.460Z,6
2019-02-03T16:58:19.086Z,6.5
2019-02-03T17:00:19.094Z,5.1
2019-02-03T17:02:18.715Z,1.2
2019-02-03T17:04:19.340Z,6.5
2019-02-03T17:06:18.854Z,8.2
2019-02-03T17:08:18.933Z,6.1
2019-02-03T17:10:19.059Z,7
2019-02-03T17:12:18.675Z,6.6
2019-02-03T17:14:19.281Z,5.6
2019-02-03T17:16:19.177Z,6.9
2019-02-03T17:18:18.854Z,7.4
2019-02-03T17:20:18.472Z,7
2019-02-03T17:22:19.114Z,6.9
2019-02-03T17:24:19.387Z,6
2019-02-03T17:26:19.161Z,1.9
2019-02-03T17:28:18.793Z,7.3
2019-02-03T17:30:19.446Z,6.8
2019-02-03T17:32:18.643Z,6.4
2019-02-03T17:34:19.288Z,6.6
2019-02-03T17:36:18.523Z,6
2019-02-03T17:38:19.178Z,5.8
2019-02-03T17:40:18.967Z,6.6
2019-02-03T17:42:18.827Z,7.5
2019-02-03T17:44:20.025Z,6.7
2019-02-03T17:46:18.816Z,7
2019-02-03T17:48:19.127Z,6
2019-02-03T17:50:18.772Z,6.8
2019-02-03T17:52:19.482Z,7.4
2019-02-03T17:54:19.124Z,7.8
2019-02-03T17:56:19.084Z,7
2019-02-03T17:58:18.765Z,7.4
2019-02-03T18:00:19.411Z,7.3
2019-02-03T18:02:19.061Z,7
2019-02-03T18:04:19.300Z,6.8
2019-02-03T18:06:19.055Z,7.4
2019-02-03T18:08:18.694Z,6.6
2019-02-03T18:10:18.786Z,6.4
2019-02-03T18:12:19.045Z,6.8
2019-02-03T18:14:24.326Z,6.3
2019-02-03T18:16:18.809Z,7.2
2019-02-03T18:18:18.638Z,6
2019-02-03T18:20:19.283Z,6.3
2019-02-03T18:22:18.907Z,5.3
2019-02-03T18:24:18.519Z,7.7
2019-02-03T18:26:18.936Z,8.3
2019-02-03T18:28:19.039Z,7.6
2019-02-03T18:30:18.696Z,6.6
2019-02-03T18:32:19.308Z,6
2019-02-03T18:34:18.918Z,8.2
2019-02-03T18:36:19.383Z,7.7
2019-02-03T18:38:18.991Z,6.3
2019-02-03T18:40:19.079Z,6.6
2019-02-03T18:42:18.710Z,6.5
2019-02-03T18:44:19.408Z,6.3
2019-02-03T18:46:18.695Z,7.2
2019-02-03T18:48:19.347Z,5.4
2019-02-03T18:50:19.005Z,4.5
2019-02-03T18:52:18.616Z,5.9
2019-02-03T18:54:19.225Z,6
2019-02-03T18:56:18.560Z,5.2
2019-02-03T18:58:19.179Z,5.9
2019-02-03T19:00:18.816Z,5.5
2019-02-03T19:02:18.447Z,6.1
2019-02-03T19:04:19.051Z,5.4
2019-02-03T19:06:18.789Z,6.6
2019-02-03T19:08:18.510Z,6.6
2019-02-03T19:10:18.614Z,5.1
2019-02-03T19:12:19.240Z,5.6
2019-02-03T19:14:18.866Z,5.9
2019-02-03T19:16:19.366Z,5
2019-02-03T19:18:19.117Z,5.8
2019-02-03T19:20:18.775Z,3.9
2019-02-03T19:22:18.760Z,5.5
2019-02-03T19:24:19.061Z,6.2
2019-02-03T19:26:18.871Z,4.1
2019-02-03T19:28:18.517Z,5.8
2019-02-03T19:30:19.233Z,5.8
2019-02-03T19:32:18.437Z,4.7
2019-02-03T19:34:19.067Z,4.2
2019-02-03T19:36:19.307Z,5.3
2019-02-03T19:38:18.951Z,5.1
2019-02-03T19:40:19.090Z,4.1
2019-02-03T19:42:18.711Z,4
2019-02-03T19:44:19.330Z,4.7
2019-02-03T19:46:19.124Z,4.2
2019-02-03T19:48:18.826Z,4.5
2019-02-03T19:50:18.459Z,4
2019-02-03T19:52:19.130Z,5
2019-02-03T19:54:18.737Z,3.9
2019-02-03T19:56:18.690Z,2.7
2019-02-03T19:58:19.338Z,2.9
2019-02-03T20:00:18.977Z,3.4
2019-02-03T20:02:18.608Z,2.5
2019-02-03T20:04:19.267Z,3.3
2019-02-03T20:06:18.545Z,3.3
2019-02-03T20:08:19.160Z,3.1
2019-02-03T20:10:19.218Z,2.7
2019-02-03T20:12:19.131Z,2.3
2019-02-03T20:14:18.758Z,2.7
2019-02-03T20:16:19.285Z,2.7
2019-02-03T20:18:18.963Z,2.6
2019-02-03T20:20:18.646Z,2.2
2019-02-03T20:22:19.284Z,2.9
2019-02-03T20:24:18.895Z,2
2019-02-03T20:26:18.828Z,4
2019-02-03T20:28:18.442Z,2.5
2019-02-03T20:30:19.082Z,2.3
2019-02-03T20:32:18.787Z,3
2019-02-03T20:34:19.386Z,2.1
2019-02-03T20:36:19.250Z,2.5
2019-02-03T20:38:18.885Z,2.4
2019-02-03T20:40:19.066Z,1.7
2019-02-03T20:42:18.727Z,1.9
2019-02-03T20:44:19.366Z,2.2
2019-02-03T20:46:18.615Z,2.1
2019-02-03T20:48:19.252Z,2
2019-02-03T20:50:18.903Z,2
2019-02-03T20:52:18.511Z,1.9
2019-02-03T20:54:19.154Z,2.7
2019-02-03T20:56:19.265Z,2.4
2019-02-03T20:58:18.879Z,2.6
2019-02-03T21:00:18.522Z,2
2019-02-03T21:02:19.145Z,2.1
2019-02-03T21:04:18.762Z,3.1
2019-02-03T21:06:19.063Z,1.8
2019-02-03T21:08:18.677Z,1.5
2019-02-03T21:10:18.746Z,2.4
2019-02-03T21:12:19.388Z,2.4
2019-02-03T21:14:19.051Z,2.2
2019-02-03T21:16:19.057Z,1.4
2019-02-03T21:18:18.752Z,2.6
2019-02-03T21:20:19.398Z,2.5
2019-02-03T21:22:19.058Z,1.9
2019-02-03T21:24:18.702Z,2.5
2019-02-03T21:26:18.987Z,1.9
2019-02-03T21:28:18.624Z,1.8
2019-02-03T21:30:19.272Z,2.5
2019-02-03T21:32:18.880Z,2.4
2019-02-03T21:34:18.508Z,1.3
2019-02-03T21:36:19.286Z,1.7
2019-02-03T21:38:18.912Z,1.8
2019-02-03T21:40:18.973Z,1.5
2019-02-03T21:42:18.595Z,2
2019-02-03T21:44:19.204Z,2.1
2019-02-03T21:46:18.559Z,2.8
2019-02-03T21:48:19.179Z,1.8
2019-02-03T21:50:18.823Z,1.8
2019-02-03T21:52:18.439Z,2.2
2019-02-03T21:54:19.303Z,2
2019-02-03T21:56:19.079Z,1.7
2019-02-03T21:58:18.713Z,1.5
2019-02-03T22:00:19.337Z,1.8
2019-02-03T22:02:18.977Z,2.1
2019-02-03T22:04:18.608Z,1.3
2019-02-03T22:06:18.583Z,1.2
2019-02-03T22:08:19.230Z,0.7
2019-02-03T22:10:19.299Z,1.2
2019-02-03T22:12:18.911Z,2
2019-02-03T22:14:18.548Z,1.7
2019-02-03T22:16:18.921Z,1.9
2019-02-03T22:18:18.605Z,1.6
2019-02-03T22:20:19.217Z,2.1
2019-02-03T22:22:18.827Z,1.6
2019-02-03T22:24:18.446Z,2
2019-02-03T22:26:18.772Z,1.5
2019-02-03T22:28:19.385Z,1.9
2019-02-03T22:30:19.017Z,2
2019-02-03T22:32:18.633Z,1.5
2019-02-03T22:34:19.266Z,1.4
2019-02-03T22:36:19.114Z,1.7
2019-02-03T22:38:18.733Z,1.6
2019-02-03T22:40:18.797Z,1.6
2019-02-03T22:42:18.432Z,1.7
2019-02-03T22:44:19.040Z,2.1
2019-02-03T22:46:18.858Z,1.6
2019-02-03T22:48:18.478Z,1.7
2019-02-03T22:50:19.098Z,2.2
2019-02-03T22:52:18.707Z,2.5
2019-02-03T22:54:19.338Z,3.3
2019-02-03T22:56:18.797Z,2.4
2019-02-03T22:58:18.404Z,2.3
2019-02-03T23:00:19.045Z,2.6
2019-02-03T23:02:18.755Z,1.9
2019-02-03T23:04:19.384Z,2.5
2019-02-03T23:06:19.191Z,2.6
2019-02-03T23:08:18.800Z,2.5
2019-02-03T23:10:18.901Z,2.5
2019-02-03T23:12:19.225Z,2.4
2019-02-03T23:14:18.846Z,2.2
2019-02-03T23:16:19.219Z,3
2019-02-03T23:18:18.892Z,2.2
2019-02-03T23:20:18.544Z,3.4
2019-02-03T23:22:19.178Z,1.8
2019-02-03T23:24:18.793Z,2.3
2019-02-03T23:26:18.712Z,3.2
2019-02-03T23:28:19.328Z,2.5
2019-02-03T23:30:18.947Z,2.6
2019-02-03T23:32:18.574Z,2.7
2019-02-03T23:34:19.169Z,2.8
2019-02-03T23:36:19.406Z,2.6
2019-02-03T23:38:19.053Z,3
2019-02-03T23:40:19.122Z,2.9
2019-02-03T23:42:18.760Z,2.2
2019-02-03T23:44:19.381Z,2.7
2019-02-03T23:46:29.030Z,3.5
2019-02-03T23:48:19.101Z,2.4
2019-02-03T23:50:18.739Z,3.5
2019-02-03T23:52:19.346Z,2.4
2019-02-03T23:54:18.962Z,2.8
2019-02-03T23:56:19.229Z,4.3
2019-02-03T23:58:18.841Z,2.1
